Time;durP1;ratioP1;P1;durP2;ratioP2;P2;SDS_P1;SDS_P2;PMS_P1;PMS_P2;Temp;Humidity;BMP_temperature;BMP_pressure;BME280_temperature;BME280_humidity;BME280_pressure;Samples;Min_cycle;Max_cycle;Signal;HPM_P1;HPM_P2
2023/07/14 00:01:34;;;;;;;20.23;18.83;;;;;;;20.15;63.85;100328.22;4802093;29;99120;-76
2023/07/14 00:04:00;;;;;;;20.33;18.80;;;;;;;20.15;64.11;100340.72;4802981;29;98132;-76
2023/07/14 00:06:26;;;;;;;19.83;18.42;;;;;;;20.11;63.95;100340.94;4815765;29;96733;-76
2023/07/14 00:08:51;;;;;;;20.92;19.45;;;;;;;20.07;64.14;100342.13;4802128;29;96947;-75
2023/07/14 00:11:24;;;;;;;21.67;20.08;;;;;;;20.08;64.53;100354.47;4802785;29;98759;-76
2023/07/14 00:13:51;;;;;;;21.13;19.33;;;;;;;20.05;64.30;100354.72;4802681;29;98212;-75
2023/07/14 00:16:20;;;;;;;19.83;18.15;;;;;;;20.03;64.20;100356.63;4802968;29;96810;-76
2023/07/14 00:18:46;;;;;;;21.48;19.38;;;;;;;20.01;63.82;100363.91;4809256;29;97022;-76
2023/07/14 00:21:16;;;;;;;20.17;18.77;;;;;;;20.00;63.43;100361.34;4814095;29;99217;-75
2023/07/14 00:23:42;;;;;;;20.58;19.08;;;;;;;19.95;63.30;100356.31;4836401;29;98593;-75
2023/07/14 00:26:13;;;;;;;19.77;18.15;;;;;;;19.98;62.82;100352.59;4839506;29;96841;-75
2023/07/14 00:28:39;;;;;;;20.45;18.52;;;;;;;19.96;62.86;100363.38;4810200;29;96851;-75
2023/07/14 00:31:05;;;;;;;20.40;18.58;;;;;;;19.90;62.83;100363.81;4838228;29;100423;-75
2023/07/14 00:33:30;;;;;;;20.80;18.88;;;;;;;19.88;62.78;100358.59;4823837;29;98350;-75
2023/07/14 00:35:56;;;;;;;21.70;20.20;;;;;;;19.85;62.97;100357.97;4819972;29;96978;-76
2023/07/14 00:38:21;;;;;;;20.48;19.10;;;;;;;19.80;62.67;100357.44;4821062;29;96855;-75
2023/07/14 00:40:48;;;;;;;20.70;18.85;;;;;;;19.76;62.72;100363.97;4825580;29;98416;-75
2023/07/14 00:43:21;;;;;;;20.58;19.17;;;;;;;19.74;62.86;100358.72;4828005;29;97812;-75
2023/07/14 00:45:48;;;;;;;20.42;18.98;;;;;;;19.71;62.76;100355.44;4809767;29;97214;-75
2023/07/14 00:48:19;;;;;;;20.58;19.17;;;;;;;19.68;62.98;100364.50;4827190;29;96854;-76
2023/07/14 00:50:50;;;;;;;20.33;18.75;;;;;;;19.64;62.91;100358.50;4820866;29;99113;-75
2023/07/14 00:53:23;;;;;;;20.98;19.25;;;;;;;19.59;63.19;100357.13;4837787;29;100152;-75
2023/07/14 00:56:10;;;;;;;20.33;18.48;;;;;;;19.55;63.27;100363.66;4809844;29;96968;-75
2023/07/14 00:58:37;;;;;;;20.40;18.77;;;;;;;19.50;63.20;100363.13;4826419;29;96596;-75
2023/07/14 01:01:10;;;;;;;21.35;19.48;;;;;;;19.46;63.37;100359.84;4807959;29;100377;-75
2023/07/14 01:03:41;;;;;;;20.55;18.98;;;;;;;19.45;63.47;100363.44;4831396;29;97160;-75
2023/07/14 01:06:12;;;;;;;22.13;19.80;;;;;;;19.42;63.37;100363.66;4838282;29;97220;-75
2023/07/14 01:09:12;;;;;;;21.48;19.70;;;;;;;19.38;63.40;100354.19;4815622;29;96795;-75
2023/07/14 01:11:51;;;;;;;20.90;19.08;;;;;;;19.36;63.57;100364.09;4780089;29;100389;-75
2023/07/14 01:14:23;;;;;;;20.20;18.30;;;;;;;19.32;63.46;100371.44;4816611;29;98346;-75
2023/07/14 01:16:51;;;;;;;28.75;19.40;;;;;;;19.31;63.50;100368.88;4803253;29;97323;-75
2023/07/14 01:19:27;;;;;;;23.73;21.35;;;;;;;19.31;63.41;100374.19;4806898;29;96966;-75
2023/07/14 01:22:13;;;;;;;20.27;18.80;;;;;;;19.26;63.65;100363.00;4811317;29;98810;-75
2023/07/14 01:24:49;;;;;;;21.15;19.35;;;;;;;19.25;63.57;100366.63;4800525;29;98999;-75
2023/07/14 01:27:15;;;;;;;21.23;19.33;;;;;;;19.22;63.66;100381.00;4770363;29;96776;-75
2023/07/14 01:29:43;;;;;;;26.67;20.48;;;;;;;19.16;63.73;100381.44;4802288;29;96903;-75
2023/07/14 01:32:19;;;;;;;21.90;19.85;;;;;;;19.16;63.83;100384.94;4800009;29;100902;-75
2023/07/14 01:34:46;;;;;;;22.30;20.10;;;;;;;19.14;63.70;100386.88;4799746;29;97630;-75
2023/07/14 01:37:15;;;;;;;21.95;19.77;;;;;;;19.13;64.08;100389.63;4800380;29;96760;-75
2023/07/14 01:39:40;;;;;;;22.05;19.80;;;;;;;19.11;63.68;100383.53;4796182;29;97055;-76
2023/07/14 01:42:06;;;;;;;21.27;19.67;;;;;;;19.11;63.70;100389.75;4817752;29;97424;-75
2023/07/14 01:44:33;;;;;;;21.63;19.65;;;;;;;19.09;63.69;100388.13;4808622;29;100472;-75
2023/07/14 01:47:00;;;;;;;23.00;21.00;;;;;;;19.07;63.74;100395.38;4821667;29;96810;-75
2023/07/14 01:49:40;;;;;;;23.52;20.83;;;;;;;19.06;63.69;100399.00;4814526;29;96971;-75
2023/07/14 01:52:09;;;;;;;22.35;20.48;;;;;;;19.06;63.84;100401.66;4784707;29;100606;-75
2023/07/14 01:54:42;;;;;;;22.20;19.88;;;;;;;19.04;63.93;100407.06;4797435;29;97205;-75
2023/07/14 01:57:12;;;;;;;22.55;20.10;;;;;;;19.05;63.69;100400.78;4803348;29;96745;-75
2023/07/14 01:59:40;;;;;;;;;;;;;;;18.99;63.58;100415.38;4804537;29;97093;-75
2023/07/14 02:02:11;;;;;;;22.27;20.35;;;;;;;18.97;63.68;100406.63;4787488;29;100586;-75
2023/07/14 02:04:38;;;;;;;24.42;21.80;;;;;;;18.97;63.63;100416.44;4808321;29;98473;-75
2023/07/14 02:07:03;;;;;;;25.88;20.05;;;;;;;18.97;63.59;100416.44;4813648;29;96818;-75
2023/07/14 02:09:31;;;;;;;23.35;20.90;;;;;;;18.98;63.78;100415.47;4787981;29;96951;-75
2023/07/14 02:11:59;;;;;;;22.65;19.75;;;;;;;18.98;63.61;100418.13;4785456;29;100045;-75
2023/07/14 02:14:27;;;;;;;24.58;19.92;;;;;;;18.94;63.63;100416.63;4801341;29;98369;-76
2023/07/14 02:16:57;;;;;;;28.58;20.42;;;;;;;18.93;63.67;100422.88;4810771;29;96744;-75
2023/07/14 02:19:24;;;;;;;25.02;20.08;;;;;;;18.91;63.48;100424.81;4815126;29;97603;-74
2023/07/14 02:21:52;;;;;;;30.52;20.65;;;;;;;18.89;63.42;100427.56;4831420;29;99052;-77
2023/07/14 02:24:20;;;;;;;23.67;20.40;;;;;;;18.88;63.52;100433.84;4802672;29;97351;-77
2023/07/14 02:26:49;;;;;;;25.27;20.73;;;;;;;18.83;63.39;100440.44;4805814;29;97512;-77
2023/07/14 02:29:15;;;;;;;22.25;19.98;;;;;;;18.78;63.40;100443.38;4830943;29;96919;-76
2023/07/14 02:31:49;;;;;;;27.08;20.98;;;;;;;18.76;63.64;100448.81;4818134;29;98781;-76
2023/07/14 02:34:15;;;;;;;25.38;20.42;;;;;;;18.74;63.68;100445.41;4804652;29;98691;-76
2023/07/14 02:36:55;;;;;;;27.38;20.73;;;;;;;18.76;63.83;100446.16;4800849;29;96745;-76
2023/07/14 02:39:20;;;;;;;22.63;20.40;;;;;;;18.73;63.64;100440.13;4816052;29;96843;-76
2023/07/14 02:41:47;;;;;;;29.55;20.40;;;;;;;18.73;63.35;100441.06;4819114;29;101319;-76
2023/07/14 02:44:14;;;;;;;22.00;19.67;;;;;;;18.70;63.50;100454.50;4801024;29;98106;-76
2023/07/14 02:46:45;;;;;;;26.75;21.08;;;;;;;18.67;63.46;100443.19;4800794;29;96735;-76
2023/07/14 02:49:11;;;;;;;21.55;19.58;;;;;;;18.66;63.42;100446.81;4797886;29;96928;-76
2023/07/14 02:51:37;;;;;;;23.48;19.98;;;;;;;18.61;63.70;100455.09;4800213;29;98622;-76
2023/07/14 02:54:04;;;;;;;25.75;20.92;;;;;;;18.59;63.55;100457.03;4800797;29;97091;-76
2023/07/14 02:56:30;;;;;;;32.78;20.80;;;;;;;18.60;63.41;100463.19;4817219;29;96898;-76
2023/07/14 02:58:56;;;;;;;28.88;21.15;;;;;;;18.61;63.64;100467.53;4818611;29;96758;-76
2023/07/14 03:01:22;;;;;;;26.77;22.02;;;;;;;18.62;63.44;100469.25;4804620;29;98988;-76
2023/07/14 03:03:48;;;;;;;28.98;20.80;;;;;;;18.63;63.56;100471.81;4821837;29;97229;-76
2023/07/14 03:06:15;;;;;;;37.72;21.52;;;;;;;18.62;63.41;100477.25;4826411;29;96703;-76
2023/07/14 03:08:41;;;;;;;27.05;20.38;;;;;;;18.62;63.58;100469.25;4813513;29;96948;-76
2023/07/14 03:11:08;;;;;;;27.05;19.75;;;;;;;18.61;63.49;100472.84;4805066;29;97382;-76
2023/07/14 03:13:35;;;;;;;22.65;19.25;;;;;;;18.65;63.35;100475.22;4799749;29;99108;-76
2023/07/14 03:16:01;;;;;;;30.60;20.30;;;;;;;18.64;63.10;100481.47;4800535;29;96770;-76
2023/07/14 03:18:26;;;;;;;25.25;20.38;;;;;;;18.62;63.14;100475.44;4796093;29;97677;-76
2023/07/14 03:21:03;;;;;;;24.50;19.98;;;;;;;18.67;63.05;100478.63;4812632;29;99165;-76
2023/07/14 03:23:29;;;;;;;26.58;20.85;;;;;;;18.71;63.29;100482.78;4810302;29;98449;-76
2023/07/14 03:26:00;;;;;;;33.42;21.13;;;;;;;18.76;62.87;100485.16;4800667;29;97004;-76
2023/07/14 03:28:27;;;;;;;31.33;19.65;;;;;;;18.82;62.66;100492.78;4808129;29;97053;-76
2023/07/14 03:30:52;;;;;;;22.00;19.65;;;;;;;18.88;62.80;100495.03;4801498;29;98818;-76
2023/07/14 03:33:18;;;;;;;31.48;19.92;;;;;;;18.90;62.32;100484.28;4799762;29;98614;-76
2023/07/14 03:35:43;;;;;;;24.45;20.48;;;;;;;18.91;62.50;100494.81;4826481;29;96638;-76
2023/07/14 03:38:09;;;;;;;23.50;19.73;;;;;;;19.00;62.23;100494.22;4800374;29;96870;-76
2023/07/14 03:40:35;;;;;;;27.83;20.90;;;;;;;19.07;62.28;100486.66;4800102;29;98825;-76
2023/07/14 03:43:03;;;;;;;27.20;21.65;;;;;;;19.15;62.05;100492.31;4801699;29;98301;-75
2023/07/14 03:45:31;;;;;;;23.67;19.55;;;;;;;19.23;62.20;100495.34;4811200;29;96897;-75
2023/07/14 03:47:57;;;;;;;22.55;19.65;;;;;;;19.28;62.07;100507.47;4803437;29;96979;-75
2023/07/14 03:50:23;;;;;;;27.73;18.58;;;;;;;19.30;61.74;100514.38;4808344;29;100477;-76
2023/07/14 03:52:48;;;;;;;30.45;20.15;;;;;;;19.33;61.42;100513.34;4806456;29;98510;-76
2023/07/14 03:55:14;;;;;;;24.23;19.45;;;;;;;19.29;61.34;100519.84;4803216;29;96722;-75
2023/07/14 03:57:40;;;;;;;25.98;21.48;;;;;;;19.32;61.31;100517.81;4802932;29;97027;-75
2023/07/14 04:00:14;;;;;;;23.00;19.45;;;;;;;19.33;60.97;100514.19;4793510;29;98770;-76
2023/07/14 04:02:48;;;;;;;28.55;20.77;;;;;;;19.34;60.83;100520.34;4806555;29;100309;-76
2023/07/14 04:05:14;;;;;;;26.42;20.80;;;;;;;19.35;60.66;100520.25;4825297;29;96779;-76
2023/07/14 04:07:42;;;;;;;28.48;19.73;;;;;;;19.39;60.78;100519.09;4810741;29;96935;-76
2023/07/14 04:10:08;;;;;;;27.52;19.48;;;;;;;19.45;60.56;100513.34;4807241;29;99253;-76
2023/07/14 04:12:35;;;;;;;25.50;19.48;;;;;;;19.56;60.33;100525.09;4802425;29;98496;-76
2023/07/14 04:15:01;;;;;;;32.05;20.40;;;;;;;19.59;60.33;100522.22;4803224;29;97054;-76
2023/07/14 04:17:28;;;;;;;32.15;22.85;;;;;;;19.65;60.40;100522.66;4811741;29;96833;-76
2023/07/14 04:19:54;;;;;;;29.95;22.20;;;;;;;19.71;60.13;100524.06;4820934;29;98774;-75
2023/07/14 04:22:20;;;;;;;22.17;20.05;;;;;;;19.80;59.83;100527.91;4814833;29;98644;-75
2023/07/14 04:24:46;;;;;;;23.05;20.20;;;;;;;19.88;59.64;100522.91;4803444;29;97277;-76
2023/07/14 04:27:12;;;;;;;26.13;19.88;;;;;;;19.97;59.57;100527.56;4802685;29;96976;-76
2023/07/14 04:29:39;;;;;;;40.70;21.08;;;;;;;20.08;58.96;100527.69;4821855;29;99276;-76
2023/07/14 04:32:05;;;;;;;21.58;19.20;;;;;;;20.16;58.69;100527.16;4808833;29;98449;-76
2023/07/14 04:34:31;;;;;;;27.77;19.88;;;;;;;20.26;58.53;100528.19;4802063;29;96956;-76
2023/07/14 04:36:56;;;;;;;29.30;19.88;;;;;;;20.34;58.61;100540.97;4802541;29;97046;-76
2023/07/14 04:39:25;;;;;;;24.17;21.00;;;;;;;20.44;58.32;100534.00;4802622;29;98718;-76
2023/07/14 04:41:50;;;;;;;35.08;19.70;;;;;;;20.42;58.02;100535.94;4802180;29;98359;-76
2023/07/14 04:44:16;;;;;;;27.48;19.88;;;;;;;20.44;58.39;100533.16;4828670;29;97138;-75
2023/07/14 04:46:44;;;;;;;37.65;19.67;;;;;;;20.43;58.63;100532.31;4802423;29;97091;-76
2023/07/14 04:49:10;;;;;;;30.60;20.83;;;;;;;20.45;58.44;100542.84;4807877;29;97523;-76
2023/07/14 04:51:37;;;;;;;31.13;20.70;;;;;;;20.44;58.52;100536.66;4822445;29;99003;-76
2023/07/14 04:54:03;;;;;;;30.05;19.15;;;;;;;20.53;58.37;100538.69;4804266;29;97110;-75
2023/07/14 04:56:29;;;;;;;31.92;19.83;;;;;;;20.56;58.17;100546.47;4839103;29;96916;-76
2023/07/14 04:58:55;;;;;;;31.50;20.65;;;;;;;20.47;58.17;100541.78;4839101;29;98914;-76
2023/07/14 05:01:21;;;;;;;23.90;20.05;;;;;;;20.50;58.14;100544.22;4804058;29;98298;-75
2023/07/14 05:03:47;;;;;;;23.90;20.10;;;;;;;20.53;58.16;100545.84;4810480;29;96821;-76
2023/07/14 05:06:13;;;;;;;30.98;19.58;;;;;;;20.60;57.74;100552.47;4802104;29;96869;-76
2023/07/14 05:08:38;;;;;;;29.23;19.23;;;;;;;20.72;57.46;100548.91;4814930;29;99137;-76
2023/07/14 05:11:04;;;;;;;26.80;19.55;;;;;;;20.80;57.70;100543.88;4802261;29;98193;-75
2023/07/14 05:13:30;;;;;;;35.97;22.50;;;;;;;20.99;57.35;100547.84;4801783;29;96733;-76
2023/07/14 05:15:56;;;;;;;23.83;20.50;;;;;;;21.09;57.32;100546.22;4802686;29;96907;-76
2023/07/14 05:18:22;;;;;;;22.92;20.52;;;;;;;21.18;57.14;100544.66;4807266;29;98904;-76
2023/07/14 05:20:48;;;;;;;27.55;20.38;;;;;;;21.30;57.15;100549.06;4833318;29;98315;-77
2023/07/14 05:23:14;;;;;;;32.00;21.20;;;;;;;21.44;56.83;100556.09;4819248;29;96968;-77
2023/07/14 05:25:40;;;;;;;28.45;20.27;;;;;;;21.60;56.33;100539.72;4819894;29;96780;-76
2023/07/14 05:28:05;;;;;;;21.02;18.83;;;;;;;21.97;55.96;100537.72;4819846;29;99136;-76
2023/07/14 05:30:31;;;;;;;26.42;20.35;;;;;;;22.23;55.59;100542.88;4819526;29;98266;-76
2023/07/14 05:32:57;;;;;;;23.45;21.13;;;;;;;22.47;55.01;100548.09;4820124;29;96796;-76
2023/07/14 05:35:22;;;;;;;28.45;21.30;;;;;;;22.69;54.36;100545.38;4820171;29;96996;-77
2023/07/14 05:37:48;;;;;;;25.13;19.05;;;;;;;22.98;53.57;100540.34;4819504;29;98673;-76
2023/07/14 05:40:15;;;;;;;27.77;20.05;;;;;;;23.38;52.77;100549.56;4820277;29;98869;-79
2023/07/14 05:42:41;;;;;;;22.13;20.10;;;;;;;23.88;51.75;100547.09;4816656;29;96862;-77
2023/07/14 05:45:09;;;;;;;24.38;20.10;;;;;;;24.02;51.53;100548.59;4817614;29;97127;-76
2023/07/14 05:47:36;;;;;;;22.98;21.08;;;;;;;24.35;50.61;100539.44;4807009;29;98946;-76
2023/07/14 05:50:03;;;;;;;21.75;19.42;;;;;;;24.94;49.06;100557.41;4791591;29;98514;-76
2023/07/14 05:52:28;;;;;;;21.23;19.25;;;;;;;25.21;48.81;100558.56;4801161;29;96878;-76
2023/07/14 05:54:54;;;;;;;25.30;19.92;;;;;;;25.60;47.64;100558.53;4812067;29;97313;-77
2023/07/14 05:57:19;;;;;;;26.73;19.38;;;;;;;25.72;46.96;100560.94;4816660;29;99118;-77
2023/07/14 05:59:45;;;;;;;21.98;19.77;;;;;;;26.23;45.97;100569.59;4819594;29;98334;-76
2023/07/14 06:02:13;;;;;;;21.83;19.50;;;;;;;26.58;44.57;100566.22;4814419;29;96825;-76
2023/07/14 06:04:39;;;;;;;22.30;19.92;;;;;;;26.94;44.10;100563.59;4815947;29;97441;-77
2023/07/14 06:07:06;;;;;;;21.30;19.45;;;;;;;26.82;44.41;100568.38;4809923;29;98768;-76
2023/07/14 06:09:36;;;;;;;22.65;20.27;;;;;;;28.47;41.22;100557.03;4808880;29;98870;-77
2023/07/14 06:12:04;;;;;;;24.20;21.57;;;;;;;29.28;39.92;100561.81;4818676;29;97073;-77
2023/07/14 06:14:39;;;;;;;22.85;19.85;;;;;;;29.45;39.29;100560.81;4818784;29;96953;-76
2023/07/14 06:17:05;;;;;;;21.25;19.42;;;;;;;29.33;39.51;100563.00;4818843;29;99384;-76
2023/07/14 06:19:31;;;;;;;22.73;20.13;;;;;;;28.58;40.53;100560.28;4816385;29;98237;-77
2023/07/14 06:21:57;;;;;;;21.75;19.75;;;;;;;27.88;41.67;100559.56;4811330;29;97431;-77
2023/07/14 06:24:23;;;;;;;23.00;19.48;;;;;;;27.77;42.11;100571.44;4816278;29;96975;-77
2023/07/14 06:26:51;;;;;;;21.05;19.30;;;;;;;28.62;40.53;100561.66;4814811;29;99230;-77
2023/07/14 06:29:18;;;;;;;21.77;19.95;;;;;;;29.17;39.13;100562.16;4817072;29;98538;-77
2023/07/14 06:31:44;;;;;;;22.65;19.00;;;;;;;28.31;40.89;100565.88;4817278;29;97504;-77
2023/07/14 06:34:09;;;;;;;20.20;18.55;;;;;;;28.14;41.18;100560.41;4822173;29;96912;-77
2023/07/14 06:36:35;;;;;;;22.20;19.85;;;;;;;27.84;41.94;100575.22;4810059;29;98812;-76
2023/07/14 06:39:03;;;;;;;21.42;19.60;;;;;;;27.32;42.86;100575.13;4808553;29;98246;-77
2023/07/14 06:41:29;;;;;;;21.30;19.45;;;;;;;26.41;44.46;100575.03;4802530;29;97115;-77
2023/07/14 06:43:54;;;;;;;26.92;19.92;;;;;;;25.84;44.89;100583.19;4806553;29;97096;-77
2023/07/14 06:46:20;;;;;;;21.27;19.50;;;;;;;25.60;45.74;100572.84;4811011;29;99126;-69
2023/07/14 06:48:46;;;;;;;20.83;19.15;;;;;;;25.39;46.41;100566.78;4824218;29;97550;-69
2023/07/14 06:51:16;;;;;;;21.05;19.35;;;;;;;25.13;47.44;100572.66;4819902;29;96823;-69
2023/07/14 06:53:41;;;;;;;20.13;18.67;;;;;;;25.20;46.81;100575.69;4819091;29;96931;-69
2023/07/14 06:56:07;;;;;;;20.35;18.75;;;;;;;25.68;45.71;100585.56;4818148;29;98687;-69
2023/07/14 06:58:33;;;;;;;20.90;19.10;;;;;;;27.10;43.22;100584.47;4814740;29;99183;-70
2023/07/14 07:01:00;;;;;;;21.05;18.55;;;;;;;27.43;42.88;100580.28;4805276;29;96857;-69
2023/07/14 07:03:26;;;;;;;20.00;18.23;;;;;;;27.69;41.64;100582.16;4811859;29;96976;-69
2023/07/14 07:05:52;;;;;;;20.23;18.50;;;;;;;26.87;42.96;100587.59;4813480;29;98581;-69
2023/07/14 07:08:18;;;;;;;19.85;18.20;;;;;;;26.13;44.36;100591.16;4817176;29;98629;-69
2023/07/14 07:10:44;;;;;;;20.60;18.88;;;;;;;25.55;44.87;100583.19;4801663;29;97051;-69
2023/07/14 07:13:11;;;;;;;20.65;18.77;;;;;;;25.07;46.19;100584.84;4811366;29;96829;-69
2023/07/14 07:15:36;;;;;;;21.52;19.60;;;;;;;24.74;46.67;100580.66;4810180;29;98869;-69
2023/07/14 07:18:03;;;;;;;22.75;20.63;;;;;;;24.61;47.11;100582.75;4810376;29;98566;-69
2023/07/14 07:20:29;;;;;;;20.23;18.83;;;;;;;24.48;47.83;100588.34;4820141;29;96903;-69
2023/07/14 07:22:54;;;;;;;19.17;17.60;;;;;;;24.37;47.54;100577.69;4821983;29;96876;-69
2023/07/14 07:25:20;;;;;;;19.50;17.80;;;;;;;24.39;48.09;100583.75;4808947;29;98839;-67
2023/07/14 07:27:45;;;;;;;21.00;19.40;;;;;;;24.46;48.26;100584.09;4814628;29;99362;-67
2023/07/14 07:30:11;;;;;;;20.60;18.80;;;;;;;24.46;48.03;100578.72;4814673;29;96817;-68
2023/07/14 07:32:37;;;;;;;19.85;17.95;;;;;;;24.57;47.15;100573.28;4812782;29;96792;-68
2023/07/14 07:35:03;;;;;;;21.10;19.20;;;;;;;25.11;46.58;100571.97;4810970;29;98944;-67
2023/07/14 07:37:33;;;;;;;19.65;18.25;;;;;;;25.34;45.76;100572.59;4816029;29;98758;-67
2023/07/14 07:40:00;;;;;;;20.30;18.17;;;;;;;25.79;44.39;100563.91;4796731;29;96879;-68
2023/07/14 07:42:27;;;;;;;20.60;18.88;;;;;;;26.69;43.60;100564.31;4800177;29;96960;-72
2023/07/14 07:44:52;;;;;;;21.40;19.38;;;;;;;27.25;42.32;100561.41;4820325;29;98708;-72
2023/07/14 07:47:18;;;;;;;19.98;18.52;;;;;;;28.47;40.47;100574.06;4816210;29;98950;-71
2023/07/14 07:49:43;;;;;;;21.15;19.23;;;;;;;28.33;40.28;100563.84;4820734;29;96916;-71
2023/07/14 07:52:11;;;;;;;20.52;18.60;;;;;;;28.09;40.22;100562.72;4818343;29;96883;-71
2023/07/14 07:54:40;;;;;;;20.20;18.42;;;;;;;32.27;33.79;100550.81;4818034;29;98982;-71
2023/07/14 07:57:08;;;;;;;20.35;18.75;;;;;;;30.40;35.57;100554.78;4819637;29;98683;-69
2023/07/14 07:59:33;;;;;;;20.85;19.17;;;;;;;29.38;36.78;100553.53;4817375;29;97393;-69
2023/07/14 08:01:59;;;;;;;19.23;17.83;;;;;;;30.21;35.52;100550.59;4820959;29;96918;-68
2023/07/14 08:04:26;;;;;;;19.17;17.70;;;;;;;29.69;37.42;100554.56;4808958;29;99158;-68
2023/07/14 08:06:52;;;;;;;20.35;18.65;;;;;;;31.89;34.53;100557.13;4819846;29;98902;-68
2023/07/14 08:09:17;;;;;;;19.92;17.95;;;;;;;31.85;34.27;100544.09;4820908;29;96856;-68
2023/07/14 08:11:43;;;;;;;20.23;18.63;;;;;;;30.04;36.13;100555.19;4820459;29;96864;-68
2023/07/14 08:14:14;;;;;;;20.70;18.83;;;;;;;28.93;37.91;100555.66;4817203;29;99088;-68
2023/07/14 08:16:40;;;;;;;20.40;18.92;;;;;;;28.12;39.09;100561.56;4819909;29;98264;-68
2023/07/14 08:19:06;;;;;;;21.08;19.15;;;;;;;27.68;40.31;100559.72;4820198;29;97089;-68
2023/07/14 08:21:31;;;;;;;19.23;17.50;;;;;;;28.26;39.35;100562.81;4820284;29;96918;-68
2023/07/14 08:23:57;;;;;;;20.25;18.23;;;;;;;27.75;39.51;100565.34;4820191;29;98952;-73
2023/07/14 08:26:23;;;;;;;20.38;18.92;;;;;;;27.06;40.39;100567.75;4819845;29;98508;-72
2023/07/14 08:28:48;;;;;;;19.02;17.50;;;;;;;27.25;40.37;100561.41;4819647;29;97170;-76
2023/07/14 08:31:14;;;;;;;19.38;17.85;;;;;;;27.25;40.61;100569.47;4820942;29;96961;-74
2023/07/14 08:33:43;;;;;;;19.98;18.48;;;;;;;26.90;40.85;100581.06;4820609;29;98609;-78
2023/07/14 08:36:11;;;;;;;20.63;18.92;;;;;;;26.14;45.52;100570.50;4813064;29;98527;-70
2023/07/14 08:38:37;;;;;;;20.02;18.52;;;;;;;25.58;43.97;100566.78;4822916;29;98306;-68
2023/07/14 08:41:23;;;;;;;19.48;17.90;;;;;;;25.25;44.66;100568.06;4820297;29;96895;-82
2023/07/14 08:44:01;;;;;;;20.27;18.75;;;;;;;25.04;45.12;100563.59;4806322;29;99467;-63
2023/07/14 08:46:48;;;;;;;18.83;17.42;;;;;;;25.13;46.40;100563.75;4819462;29;98413;-65
2023/07/14 08:49:32;;;;;;;20.48;18.38;;;;;;;25.45;46.30;100571.56;4811557;29;97249;-74
2023/07/14 08:52:09;;;;;;;19.15;17.63;;;;;;;25.89;45.52;100564.78;4820397;29;96766;-78
2023/07/14 08:54:59;;;;;;;19.75;18.10;;;;;;;26.13;44.75;100556.19;4819705;29;98956;-83
2023/07/14 08:57:26;;;;;;;19.42;17.80;;;;;;;26.15;44.06;100566.78;4795729;29;98453;-73
2023/07/14 08:59:54;;;;;;;20.52;19.02;;;;;;;26.38;43.45;100557.38;4803573;29;97442;-72
2023/07/14 09:02:32;;;;;;;20.02;18.45;;;;;;;26.90;43.21;100561.34;4804206;29;97075;-83
2023/07/14 09:05:25;;;;;;;19.63;18.10;;;;;;;27.15;42.76;100552.56;4802759;29;98766;-70
2023/07/14 09:07:51;;;;;;;20.92;19.20;;;;;;;27.41;42.83;100551.78;4799027;29;98431;-79
2023/07/14 09:10:17;;;;;;;20.38;18.98;;;;;;;27.02;41.04;100546.66;4805267;29;96920;-79
2023/07/14 09:12:52;;;;;;;20.75;19.05;;;;;;;27.12;42.22;100549.31;4816341;29;97469;-80
2023/07/14 09:15:21;;;;;;;20.98;19.27;;;;;;;27.16;42.25;100543.47;4823757;29;99141;-79
2023/07/14 09:18:12;;;;;;;20.55;19.05;;;;;;;27.14;42.50;100547.28;4820997;29;98922;-78
2023/07/14 09:20:59;;;;;;;20.42;18.50;;;;;;;27.43;42.20;100544.38;4805102;29;97215;-75
2023/07/14 09:23:27;;;;;;;20.10;18.30;;;;;;;27.23;41.59;100546.41;4824208;29;96804;-76
2023/07/14 09:26:00;;;;;;;19.95;18.55;;;;;;;27.36;40.90;100543.31;4829929;29;98685;-76
2023/07/14 09:28:30;;;;;;;19.75;17.77;;;;;;;27.51;41.26;100541.75;4796132;29;98496;-75
2023/07/14 09:30:58;;;;;;;18.98;17.30;;;;;;;27.42;42.07;100540.81;4817602;29;96675;-75
2023/07/14 09:33:26;;;;;;;18.92;17.30;;;;;;;27.39;41.72;100535.75;4819440;29;96843;-76
2023/07/14 09:35:51;;;;;;;19.58;17.85;;;;;;;27.35;41.29;100545.16;4806388;29;98710;-75
2023/07/14 09:38:21;;;;;;;19.55;17.70;;;;;;;26.79;41.08;100543.56;4820297;29;99115;-75
2023/07/14 09:40:50;;;;;;;19.20;17.70;;;;;;;26.92;41.96;100538.66;4826450;29;97511;-77
2023/07/14 09:43:16;;;;;;;19.27;17.45;;;;;;;27.02;41.82;100544.84;4821136;29;97294;-77
2023/07/14 09:45:41;;;;;;;19.55;17.77;;;;;;;27.18;41.84;100532.56;4816774;29;99001;-80
2023/07/14 09:48:27;;;;;;;19.40;18.08;;;;;;;27.29;41.53;100521.53;4808331;29;98340;-78
2023/07/14 09:50:57;;;;;;;19.77;18.00;;;;;;;27.09;40.30;100521.66;4798864;29;97535;-80
2023/07/14 09:53:23;;;;;;;19.45;18.00;;;;;;;26.99;40.05;100515.50;4793242;29;97057;-78
2023/07/14 09:55:57;;;;;;;19.52;17.98;;;;;;;26.95;40.54;100516.81;4800291;29;99066;-79
2023/07/14 09:58:25;;;;;;;19.15;17.80;;;;;;;27.08;41.03;100509.19;4817455;29;98484;-80
2023/07/14 10:00:54;;;;;;;19.05;17.77;;;;;;;27.17;40.87;100502.06;4802228;29;96905;-78
2023/07/14 10:03:20;;;;;;;19.15;17.55;;;;;;;27.25;40.88;100507.50;4820327;29;97213;-76
2023/07/14 10:05:54;;;;;;;18.67;17.48;;;;;;;27.14;40.25;100496.09;4817010;29;98679;-82
2023/07/14 10:08:33;;;;;;;19.40;18.20;;;;;;;26.86;40.34;100494.34;4818927;29;98479;-81
2023/07/14 10:11:13;;;;;;;18.45;17.25;;;;;;;27.07;39.68;100494.03;4790420;29;97092;-80
2023/07/14 10:13:38;;;;;;;19.23;17.92;;;;;;;27.19;39.54;100485.72;4815573;29;96854;-81
2023/07/14 10:16:07;;;;;;;19.60;17.95;;;;;;;27.21;39.76;100481.03;4833121;29;99222;-81
2023/07/14 10:18:49;;;;;;;19.33;17.67;;;;;;;26.93;38.12;100482.94;4808328;29;98648;-81
2023/07/14 10:21:22;;;;;;;18.58;17.27;;;;;;;26.85;39.42;100483.75;4823757;29;96626;-80
2023/07/14 10:24:07;;;;;;;18.85;17.55;;;;;;;26.96;39.11;100477.25;4815357;29;96711;-80
2023/07/14 10:26:36;;;;;;;18.77;17.25;;;;;;;26.78;39.78;100480.78;4818927;29;99389;-81
2023/07/14 10:29:11;;;;;;;18.70;17.20;;;;;;;26.81;39.51;100467.03;4806948;29;98562;-81
2023/07/14 10:31:47;;;;;;;19.25;17.70;;;;;;;26.97;38.96;100470.88;4790577;29;96686;-81
2023/07/14 10:34:41;;;;;;;19.30;17.77;;;;;;;27.00;39.19;100462.50;4806526;29;96938;-82
2023/07/14 10:37:27;;;;;;;18.25;17.05;;;;;;;26.70;41.05;100467.25;4801185;29;99180;-78
2023/07/14 10:40:04;;;;;;;17.98;16.58;;;;;;;26.66;44.63;100465.03;4807881;29;99352;-81
2023/07/14 10:42:33;;;;;;;19.13;17.70;;;;;;;26.56;46.94;100451.66;4799351;29;97502;-80
2023/07/14 10:44:58;;;;;;;17.83;16.63;;;;;;;26.55;45.56;100453.47;4802141;29;97733;-80
2023/07/14 10:47:45;;;;;;;18.90;17.40;;;;;;;26.39;45.37;100447.91;4800459;29;98631;-81
2023/07/14 10:50:19;;;;;;;18.35;17.10;;;;;;;26.68;42.10;100446.88;4808729;29;98876;-81
2023/07/14 10:52:50;;;;;;;18.33;17.00;;;;;;;26.62;44.35;100448.34;4812991;29;96735;-80
2023/07/14 10:55:29;;;;;;;18.02;16.73;;;;;;;26.41;44.95;100441.38;4801171;29;96912;-80
2023/07/14 10:58:03;;;;;;;18.45;16.92;;;;;;;26.33;43.92;100448.50;4792466;29;99071;-80
2023/07/14 11:00:50;;;;;;;17.85;16.63;;;;;;;26.34;42.63;100434.88;4800509;29;98754;-80
2023/07/14 11:03:28;;;;;;;17.52;16.33;;;;;;;26.31;42.47;100439.72;4811927;29;97865;-80
2023/07/14 11:05:55;;;;;;;17.63;16.27;;;;;;;26.43;39.18;100435.81;4818255;29;96778;-80
2023/07/14 11:08:23;;;;;;;18.50;17.10;;;;;;;26.27;38.44;100422.19;4818543;29;99223;-80
2023/07/14 11:11:11;;;;;;;18.10;16.45;;;;;;;26.49;39.19;100420.91;4806797;29;98786;-80
2023/07/14 11:13:58;;;;;;;19.13;17.60;;;;;;;26.31;39.31;100437.88;4801576;29;96994;-80
2023/07/14 11:16:33;;;;;;;18.20;16.95;;;;;;;26.28;40.76;100413.13;4812681;29;96933;-80
2023/07/14 11:19:06;;;;;;;17.65;16.55;;;;;;;26.17;41.91;100417.69;4782524;29;99164;-80